sensor_id;sensor_type;location;lat;lon;timestamp;temperature;humidity
7498;DHT22;3790;48.806;9.140;2023-05-07T00:03:38;14.90;99.90
7498;DHT22;3790;48.806;9.140;2023-05-07T00:08:41;14.90;99.90
7498;DHT22;3790;48.806;9.140;2023-05-07T00:13:42;14.90;99.90
7498;DHT22;3790;48.806;9.140;2023-05-07T00:18:42;14.80;99.90
7498;DHT22;3790;48.806;9.140;2023-05-07T00:23:43;14.70;99.90
7498;DHT22;3790;48.806;9.140;2023-05-07T00:28:43;14.60;99.90
7498;DHT22;3790;48.806;9.140;2023-05-07T00:33:44;14.50;99.90
7498;DHT22;3790;48.806;9.140;2023-05-07T00:38:44;14.40;99.90
7498;DHT22;3790;48.806;9.140;2023-05-07T00:43:45;14.50;99.90
7498;DHT22;3790;48.806;9.140;2023-05-07T00:48:45;14.40;99.90
7498;DHT22;3790;48.806;9.140;2023-05-07T00:53:46;14.30;99.90
7498;DHT22;3790;48.806;9.140;2023-05-07T00:58:48;14.30;99.90
7498;DHT22;3790;48.806;9.140;2023-05-07T01:03:48;14.20;99.90
7498;DHT22;3790;48.806;9.140;2023-05-07T01:08:49;14.10;99.90
7498;DHT22;3790;48.806;9.140;2023-05-07T01:13:51;14.10;99.90
7498;DHT22;3790;48.806;9.140;2023-05-07T01:18:52;14.10;99.90
7498;DHT22;3790;48.806;9.140;2023-05-07T01:23:54;14.00;99.90
7498;DHT22;3790;48.806;9.140;2023-05-07T01:28:55;14.00;99.90
7498;DHT22;3790;48.806;9.140;2023-05-07T01:33:57;13.90;99.90
7498;DHT22;3790;48.806;9.140;2023-05-07T01:38:59;13.90;99.90
7498;DHT22;3790;48.806;9.140;2023-05-07T01:44:00;13.80;99.90
7498;DHT22;3790;48.806;9.140;2023-05-07T01:49:01;13.80;99.90
7498;DHT22;3790;48.806;9.140;2023-05-07T01:54:02;13.80;99.90
7498;DHT22;3790;48.806;9.140;2023-05-07T01:59:02;14.00;99.90
7498;DHT22;3790;48.806;9.140;2023-05-07T02:04:03;14.00;99.90
7498;DHT22;3790;48.806;9.140;2023-05-07T02:09:04;14.00;99.90
7498;DHT22;3790;48.806;9.140;2023-05-07T02:14:04;14.00;99.90
7498;DHT22;3790;48.806;9.140;2023-05-07T02:19:05;14.00;99.90
7498;DHT22;3790;48.806;9.140;2023-05-07T02:24:06;13.90;99.90
7498;DHT22;3790;48.806;9.140;2023-05-07T02:29:06;13.80;99.90
7498;DHT22;3790;48.806;9.140;2023-05-07T02:34:07;13.70;99.90
7498;DHT22;3790;48.806;9.140;2023-05-07T02:39:07;13.70;99.90
7498;DHT22;3790;48.806;9.140;2023-05-07T02:44:08;13.50;99.90
7498;DHT22;3790;48.806;9.140;2023-05-07T02:49:09;13.30;99.90
7498;DHT22;3790;48.806;9.140;2023-05-07T02:54:09;13.20;99.90
7498;DHT22;3790;48.806;9.140;2023-05-07T02:59:10;13.10;99.90
7498;DHT22;3790;48.806;9.140;2023-05-07T03:04:11;13.10;99.90
7498;DHT22;3790;48.806;9.140;2023-05-07T03:09:11;13.00;99.90
7498;DHT22;3790;48.806;9.140;2023-05-07T03:14:12;13.00;99.90
7498;DHT22;3790;48.806;9.140;2023-05-07T03:19:12;12.90;99.90
7498;DHT22;3790;48.806;9.140;2023-05-07T03:24:22;12.80;99.90
7498;DHT22;3790;48.806;9.140;2023-05-07T03:29:22;12.70;99.90
7498;DHT22;3790;48.806;9.140;2023-05-07T03:34:37;12.70;99.90
7498;DHT22;3790;48.806;9.140;2023-05-07T03:39:41;12.70;99.90
7498;DHT22;3790;48.806;9.140;2023-05-07T03:44:47;12.80;99.90
7498;DHT22;3790;48.806;9.140;2023-05-07T03:49:58;12.70;99.90
7498;DHT22;3790;48.806;9.140;2023-05-07T04:00:45;12.50;99.90
7498;DHT22;3790;48.806;9.140;2023-05-07T04:16:59;12.50;99.90
7498;DHT22;3790;48.806;9.140;2023-05-07T04:22:10;12.60;99.90
7498;DHT22;3790;48.806;9.140;2023-05-07T04:27:11;12.60;99.90
7498;DHT22;3790;48.806;9.140;2023-05-07T04:32:26;12.70;99.90
7498;DHT22;3790;48.806;9.140;2023-05-07T04:37:47;12.70;99.90
7498;DHT22;3790;48.806;9.140;2023-05-07T04:42:59;12.70;99.90
7498;DHT22;3790;48.806;9.140;2023-05-07T04:48:05;12.80;99.90
7498;DHT22;3790;48.806;9.140;2023-05-07T04:53:06;13.00;99.90
7498;DHT22;3790;48.806;9.140;2023-05-07T04:58:46;13.10;99.90
7498;DHT22;3790;48.806;9.140;2023-05-07T05:03:47;13.00;99.90
7498;DHT22;3790;48.806;9.140;2023-05-07T05:08:59;13.10;99.90
7498;DHT22;3790;48.806;9.140;2023-05-07T05:14:25;13.10;99.90
7498;DHT22;3790;48.806;9.140;2023-05-07T05:19:35;13.20;99.90
7498;DHT22;3790;48.806;9.140;2023-05-07T05:30:25;13.60;99.90
7498;DHT22;3790;48.806;9.140;2023-05-07T05:41:18;13.90;99.90
7498;DHT22;3790;48.806;9.140;2023-05-07T05:46:45;14.20;99.90
7498;DHT22;3790;48.806;9.140;2023-05-07T05:51:46;14.30;99.90
7498;DHT22;3790;48.806;9.140;2023-05-07T05:56:47;14.40;99.90
7498;DHT22;3790;48.806;9.140;2023-05-07T06:02:12;14.40;99.90
7498;DHT22;3790;48.806;9.140;2023-05-07T06:07:15;14.60;99.90
7498;DHT22;3790;48.806;9.140;2023-05-07T06:12:15;14.90;99.90
7498;DHT22;3790;48.806;9.140;2023-05-07T06:18:11;15.30;99.90
7498;DHT22;3790;48.806;9.140;2023-05-07T06:22:58;15.60;99.90
7498;DHT22;3790;48.806;9.140;2023-05-07T06:28:06;15.50;99.90
7498;DHT22;3790;48.806;9.140;2023-05-07T06:33:39;15.60;99.90
7498;DHT22;3790;48.806;9.140;2023-05-07T06:38:43;15.50;99.90
7498;DHT22;3790;48.806;9.140;2023-05-07T06:43:43;15.40;99.90
7498;DHT22;3790;48.806;9.140;2023-05-07T06:49:02;15.40;99.90
7498;DHT22;3790;48.806;9.140;2023-05-07T06:54:03;15.40;99.90
7498;DHT22;3790;48.806;9.140;2023-05-07T06:59:04;15.60;99.90
7498;DHT22;3790;48.806;9.140;2023-05-07T07:04:05;15.80;99.90
7498;DHT22;3790;48.806;9.140;2023-05-07T07:09:05;16.00;99.90
7498;DHT22;3790;48.806;9.140;2023-05-07T07:14:06;16.40;99.90
7498;DHT22;3790;48.806;9.140;2023-05-07T07:19:06;16.80;99.90
7498;DHT22;3790;48.806;9.140;2023-05-07T07:24:07;17.10;99.90
7498;DHT22;3790;48.806;9.140;2023-05-07T07:29:07;17.60;99.90
7498;DHT22;3790;48.806;9.140;2023-05-07T07:34:08;18.20;99.90
7498;DHT22;3790;48.806;9.140;2023-05-07T07:39:09;18.70;99.90
7498;DHT22;3790;48.806;9.140;2023-05-07T07:44:09;19.20;99.90
7498;DHT22;3790;48.806;9.140;2023-05-07T07:49:13;19.80;99.90
7498;DHT22;3790;48.806;9.140;2023-05-07T07:54:13;20.30;99.90
7498;DHT22;3790;48.806;9.140;2023-05-07T07:59:14;20.40;99.90
7498;DHT22;3790;48.806;9.140;2023-05-07T08:09:57;20.50;99.90
7498;DHT22;3790;48.806;9.140;2023-05-07T08:15:03;20.70;99.90
7498;DHT22;3790;48.806;9.140;2023-05-07T08:20:05;20.80;99.90
7498;DHT22;3790;48.806;9.140;2023-05-07T08:25:05;20.90;99.90
7498;DHT22;3790;48.806;9.140;2023-05-07T08:30:07;20.80;99.90
7498;DHT22;3790;48.806;9.140;2023-05-07T08:35:08;20.50;99.90
7498;DHT22;3790;48.806;9.140;2023-05-07T08:40:11;20.40;99.90
7498;DHT22;3790;48.806;9.140;2023-05-07T08:45:12;20.30;99.90
7498;DHT22;3790;48.806;9.140;2023-05-07T08:50:13;20.30;99.90
7498;DHT22;3790;48.806;9.140;2023-05-07T08:55:16;20.40;99.90
7498;DHT22;3790;48.806;9.140;2023-05-07T09:00:17;20.50;99.90
7498;DHT22;3790;48.806;9.140;2023-05-07T09:05:18;21.00;99.90
7498;DHT22;3790;48.806;9.140;2023-05-07T09:10:19;21.10;99.90
7498;DHT22;3790;48.806;9.140;2023-05-07T09:15:20;21.10;99.90
7498;DHT22;3790;48.806;9.140;2023-05-07T09:20:21;21.40;99.90
7498;DHT22;3790;48.806;9.140;2023-05-07T09:25:29;21.60;99.90
7498;DHT22;3790;48.806;9.140;2023-05-07T09:30:30;21.80;99.90
7498;DHT22;3790;48.806;9.140;2023-05-07T09:35:31;21.80;99.90
7498;DHT22;3790;48.806;9.140;2023-05-07T09:40:31;22.10;99.90
7498;DHT22;3790;48.806;9.140;2023-05-07T09:45:32;22.00;99.90
7498;DHT22;3790;48.806;9.140;2023-05-07T09:50:36;22.10;99.90
7498;DHT22;3790;48.806;9.140;2023-05-07T09:55:41;22.20;99.90
7498;DHT22;3790;48.806;9.140;2023-05-07T10:00:42;22.20;99.90
7498;DHT22;3790;48.806;9.140;2023-05-07T10:05:43;22.30;99.90
7498;DHT22;3790;48.806;9.140;2023-05-07T10:10:45;22.60;99.90
7498;DHT22;3790;48.806;9.140;2023-05-07T10:15:47;22.90;99.90
7498;DHT22;3790;48.806;9.140;2023-05-07T10:20:48;23.10;99.90
7498;DHT22;3790;48.806;9.140;2023-05-07T10:25:51;23.50;99.90
7498;DHT22;3790;48.806;9.140;2023-05-07T10:31:20;23.90;99.90
7498;DHT22;3790;48.806;9.140;2023-05-07T10:36:24;24.70;99.90
7498;DHT22;3790;48.806;9.140;2023-05-07T10:41:25;25.10;99.90
7498;DHT22;3790;48.806;9.140;2023-05-07T10:46:26;25.00;99.90
7498;DHT22;3790;48.806;9.140;2023-05-07T10:51:27;25.30;99.90
7498;DHT22;3790;48.806;9.140;2023-05-07T10:56:28;25.10;99.90
7498;DHT22;3790;48.806;9.140;2023-05-07T11:01:52;25.00;99.90
7498;DHT22;3790;48.806;9.140;2023-05-07T11:12:16;25.10;99.90
7498;DHT22;3790;48.806;9.140;2023-05-07T11:17:17;25.20;99.90
7498;DHT22;3790;48.806;9.140;2023-05-07T11:22:47;25.30;99.90
7498;DHT22;3790;48.806;9.140;2023-05-07T11:27:48;25.00;99.90
7498;DHT22;3790;48.806;9.140;2023-05-07T11:32:48;24.80;99.90
7498;DHT22;3790;48.806;9.140;2023-05-07T11:37:49;24.90;99.90
7498;DHT22;3790;48.806;9.140;2023-05-07T11:42:51;24.80;99.90
7498;DHT22;3790;48.806;9.140;2023-05-07T11:47:51;24.60;99.90
7498;DHT22;3790;48.806;9.140;2023-05-07T11:52:52;24.00;99.90
7498;DHT22;3790;48.806;9.140;2023-05-07T11:57:53;23.00;99.90
7498;DHT22;3790;48.806;9.140;2023-05-07T12:02:53;22.70;99.90
7498;DHT22;3790;48.806;9.140;2023-05-07T12:07:58;22.60;99.90
7498;DHT22;3790;48.806;9.140;2023-05-07T12:12:59;22.50;99.90
7498;DHT22;3790;48.806;9.140;2023-05-07T12:18:00;22.30;99.90
7498;DHT22;3790;48.806;9.140;2023-05-07T12:23:01;21.80;99.90
7498;DHT22;3790;48.806;9.140;2023-05-07T12:28:02;21.20;99.90
7498;DHT22;3790;48.806;9.140;2023-05-07T12:33:05;20.10;99.90
7498;DHT22;3790;48.806;9.140;2023-05-07T12:38:13;19.10;99.90
7498;DHT22;3790;48.806;9.140;2023-05-07T12:43:27;18.00;99.90
7498;DHT22;3790;48.806;9.140;2023-05-07T12:48:28;17.20;99.90
7498;DHT22;3790;48.806;9.140;2023-05-07T12:53:30;16.40;99.90
7498;DHT22;3790;48.806;9.140;2023-05-07T12:58:34;16.10;99.90
7498;DHT22;3790;48.806;9.140;2023-05-07T13:03:36;15.80;99.90
7498;DHT22;3790;48.806;9.140;2023-05-07T13:08:39;15.50;99.90
7498;DHT22;3790;48.806;9.140;2023-05-07T13:13:41;15.50;99.90
7498;DHT22;3790;48.806;9.140;2023-05-07T13:18:41;15.50;99.90
7498;DHT22;3790;48.806;9.140;2023-05-07T13:23:43;15.50;99.90
7498;DHT22;3790;48.806;9.140;2023-05-07T13:28:44;15.50;99.90
7498;DHT22;3790;48.806;9.140;2023-05-07T13:33:44;15.20;99.90
7498;DHT22;3790;48.806;9.140;2023-05-07T13:38:45;15.10;99.90
7498;DHT22;3790;48.806;9.140;2023-05-07T13:43:46;15.20;99.90
7498;DHT22;3790;48.806;9.140;2023-05-07T13:48:47;15.30;99.90
7498;DHT22;3790;48.806;9.140;2023-05-07T13:53:48;15.40;99.90
7498;DHT22;3790;48.806;9.140;2023-05-07T13:58:48;15.40;99.90
7498;DHT22;3790;48.806;9.140;2023-05-07T14:03:49;15.40;99.90
7498;DHT22;3790;48.806;9.140;2023-05-07T14:08:49;15.30;99.90
7498;DHT22;3790;48.806;9.140;2023-05-07T14:13:50;15.10;99.90
7498;DHT22;3790;48.806;9.140;2023-05-07T14:18:51;15.00;99.90
7498;DHT22;3790;48.806;9.140;2023-05-07T14:23:51;15.10;99.90
7498;DHT22;3790;48.806;9.140;2023-05-07T14:28:52;15.00;99.90
7498;DHT22;3790;48.806;9.140;2023-05-07T14:33:52;15.00;99.90
7498;DHT22;3790;48.806;9.140;2023-05-07T14:38:53;15.00;99.90
7498;DHT22;3790;48.806;9.140;2023-05-07T14:43:55;15.10;99.90
7498;DHT22;3790;48.806;9.140;2023-05-07T14:48:57;15.10;99.90
7498;DHT22;3790;48.806;9.140;2023-05-07T14:53:57;15.00;99.90
7498;DHT22;3790;48.806;9.140;2023-05-07T14:59:02;15.00;99.90
7498;DHT22;3790;48.806;9.140;2023-05-07T15:04:04;15.10;99.90
7498;DHT22;3790;48.806;9.140;2023-05-07T15:09:04;15.20;99.90
7498;DHT22;3790;48.806;9.140;2023-05-07T15:14:05;15.40;99.90
7498;DHT22;3790;48.806;9.140;2023-05-07T15:19:05;15.60;99.90
7498;DHT22;3790;48.806;9.140;2023-05-07T15:24:06;15.80;99.90
7498;DHT22;3790;48.806;9.140;2023-05-07T15:29:07;15.90;99.90
7498;DHT22;3790;48.806;9.140;2023-05-07T15:34:10;16.10;99.90
7498;DHT22;3790;48.806;9.140;2023-05-07T15:39:10;16.20;99.90
7498;DHT22;3790;48.806;9.140;2023-05-07T15:44:11;16.20;99.90
7498;DHT22;3790;48.806;9.140;2023-05-07T15:49:14;16.40;99.90
7498;DHT22;3790;48.806;9.140;2023-05-07T15:54:15;16.50;99.90
7498;DHT22;3790;48.806;9.140;2023-05-07T15:59:17;16.50;99.90
7498;DHT22;3790;48.806;9.140;2023-05-07T16:04:17;16.50;99.90
7498;DHT22;3790;48.806;9.140;2023-05-07T16:09:18;16.50;99.90
7498;DHT22;3790;48.806;9.140;2023-05-07T16:14:22;16.30;99.90
7498;DHT22;3790;48.806;9.140;2023-05-07T16:19:26;16.00;99.90
7498;DHT22;3790;48.806;9.140;2023-05-07T16:24:26;15.80;99.90
7498;DHT22;3790;48.806;9.140;2023-05-07T16:29:27;15.70;99.90
7498;DHT22;3790;48.806;9.140;2023-05-07T16:34:27;15.80;99.90
7498;DHT22;3790;48.806;9.140;2023-05-07T16:39:28;16.10;99.90
7498;DHT22;3790;48.806;9.140;2023-05-07T16:44:28;16.20;99.90
7498;DHT22;3790;48.806;9.140;2023-05-07T16:49:29;16.20;99.90
7498;DHT22;3790;48.806;9.140;2023-05-07T16:54:29;16.10;99.90
7498;DHT22;3790;48.806;9.140;2023-05-07T16:59:30;16.10;99.90
7498;DHT22;3790;48.806;9.140;2023-05-07T17:04:32;16.10;99.90
7498;DHT22;3790;48.806;9.140;2023-05-07T17:09:33;16.30;99.90
7498;DHT22;3790;48.806;9.140;2023-05-07T17:14:33;16.20;99.90
7498;DHT22;3790;48.806;9.140;2023-05-07T17:19:36;16.20;99.90
7498;DHT22;3790;48.806;9.140;2023-05-07T17:24:37;16.40;99.90
7498;DHT22;3790;48.806;9.140;2023-05-07T17:29:38;16.10;99.90
7498;DHT22;3790;48.806;9.140;2023-05-07T17:34:38;15.90;99.90
7498;DHT22;3790;48.806;9.140;2023-05-07T17:39:39;15.90;99.90
7498;DHT22;3790;48.806;9.140;2023-05-07T17:44:39;15.90;99.90
7498;DHT22;3790;48.806;9.140;2023-05-07T17:49:40;16.00;99.90
7498;DHT22;3790;48.806;9.140;2023-05-07T17:54:41;16.00;99.90
7498;DHT22;3790;48.806;9.140;2023-05-07T17:59:42;16.00;99.90
7498;DHT22;3790;48.806;9.140;2023-05-07T18:04:42;15.90;99.90
7498;DHT22;3790;48.806;9.140;2023-05-07T18:09:43;15.90;99.90
7498;DHT22;3790;48.806;9.140;2023-05-07T18:14:44;15.90;99.90
7498;DHT22;3790;48.806;9.140;2023-05-07T18:19:46;16.00;99.90
7498;DHT22;3790;48.806;9.140;2023-05-07T18:24:47;16.00;99.90
7498;DHT22;3790;48.806;9.140;2023-05-07T18:29:47;15.90;99.90
7498;DHT22;3790;48.806;9.140;2023-05-07T18:34:48;15.70;99.90
7498;DHT22;3790;48.806;9.140;2023-05-07T18:39:48;15.50;99.90
7498;DHT22;3790;48.806;9.140;2023-05-07T18:44:49;15.40;99.90
7498;DHT22;3790;48.806;9.140;2023-05-07T18:49:49;15.30;99.90
7498;DHT22;3790;48.806;9.140;2023-05-07T18:54:50;15.40;99.90
7498;DHT22;3790;48.806;9.140;2023-05-07T18:59:55;15.30;99.90
7498;DHT22;3790;48.806;9.140;2023-05-07T19:04:55;15.30;99.90
7498;DHT22;3790;48.806;9.140;2023-05-07T19:09:56;15.10;99.90
7498;DHT22;3790;48.806;9.140;2023-05-07T19:14:57;15.00;99.90
7498;DHT22;3790;48.806;9.140;2023-05-07T19:19:57;14.90;99.90
7498;DHT22;3790;48.806;9.140;2023-05-07T19:24:57;14.70;99.90
7498;DHT22;3790;48.806;9.140;2023-05-07T19:29:58;14.80;99.90
7498;DHT22;3790;48.806;9.140;2023-05-07T19:34:59;14.90;99.90
7498;DHT22;3790;48.806;9.140;2023-05-07T19:40:00;14.90;99.90
7498;DHT22;3790;48.806;9.140;2023-05-07T19:45:04;14.80;99.90
7498;DHT22;3790;48.806;9.140;2023-05-07T19:50:05;14.90;99.90
7498;DHT22;3790;48.806;9.140;2023-05-07T19:55:07;14.90;99.90
7498;DHT22;3790;48.806;9.140;2023-05-07T20:00:08;14.90;99.90
7498;DHT22;3790;48.806;9.140;2023-05-07T20:05:09;14.90;99.90
7498;DHT22;3790;48.806;9.140;2023-05-07T20:10:10;14.90;99.90
7498;DHT22;3790;48.806;9.140;2023-05-07T20:15:11;14.90;99.90
7498;DHT22;3790;48.806;9.140;2023-05-07T20:20:11;15.00;99.90
7498;DHT22;3790;48.806;9.140;2023-05-07T20:25:12;14.90;99.90
7498;DHT22;3790;48.806;9.140;2023-05-07T20:30:14;14.90;99.90
7498;DHT22;3790;48.806;9.140;2023-05-07T20:35:14;14.80;99.90
7498;DHT22;3790;48.806;9.140;2023-05-07T20:40:15;14.90;99.90
7498;DHT22;3790;48.806;9.140;2023-05-07T20:45:16;15.00;99.90
7498;DHT22;3790;48.806;9.140;2023-05-07T20:50:16;15.00;99.90
7498;DHT22;3790;48.806;9.140;2023-05-07T20:55:17;14.90;99.90
7498;DHT22;3790;48.806;9.140;2023-05-07T21:00:17;15.00;99.90
7498;DHT22;3790;48.806;9.140;2023-05-07T21:05:18;15.00;99.90
7498;DHT22;3790;48.806;9.140;2023-05-07T21:10:19;15.00;99.90
7498;DHT22;3790;48.806;9.140;2023-05-07T21:15:19;15.10;99.90
7498;DHT22;3790;48.806;9.140;2023-05-07T21:20:20;15.10;99.90
7498;DHT22;3790;48.806;9.140;2023-05-07T21:25:21;15.10;99.90
7498;DHT22;3790;48.806;9.140;2023-05-07T21:30:24;15.00;99.90
7498;DHT22;3790;48.806;9.140;2023-05-07T21:35:25;15.00;99.90
7498;DHT22;3790;48.806;9.140;2023-05-07T21:40:25;15.00;99.90
7498;DHT22;3790;48.806;9.140;2023-05-07T21:45:26;15.10;99.90
7498;DHT22;3790;48.806;9.140;2023-05-07T21:50:27;15.10;99.90
7498;DHT22;3790;48.806;9.140;2023-05-07T21:55:28;15.10;99.90
7498;DHT22;3790;48.806;9.140;2023-05-07T22:00:28;15.10;99.90
7498;DHT22;3790;48.806;9.140;2023-05-07T22:05:30;15.20;99.90
7498;DHT22;3790;48.806;9.140;2023-05-07T22:10:31;15.10;99.90
7498;DHT22;3790;48.806;9.140;2023-05-07T22:15:32;15.20;99.90
7498;DHT22;3790;48.806;9.140;2023-05-07T22:20:32;15.20;99.90
7498;DHT22;3790;48.806;9.140;2023-05-07T22:25:33;15.30;99.90
7498;DHT22;3790;48.806;9.140;2023-05-07T22:30:34;15.30;99.90
7498;DHT22;3790;48.806;9.140;2023-05-07T22:35:35;15.30;99.90
7498;DHT22;3790;48.806;9.140;2023-05-07T22:40:35;15.30;99.90
7498;DHT22;3790;48.806;9.140;2023-05-07T22:45:36;15.30;99.90
7498;DHT22;3790;48.806;9.140;2023-05-07T22:50:37;15.30;99.90
7498;DHT22;3790;48.806;9.140;2023-05-07T22:55:37;15.30;99.90
7498;DHT22;3790;48.806;9.140;2023-05-07T23:00:38;15.30;99.90
7498;DHT22;3790;48.806;9.140;2023-05-07T23:05:39;15.30;99.90
7498;DHT22;3790;48.806;9.140;2023-05-07T23:10:39;15.30;99.90
7498;DHT22;3790;48.806;9.140;2023-05-07T23:15:40;15.30;99.90
7498;DHT22;3790;48.806;9.140;2023-05-07T23:20:41;15.30;99.90
7498;DHT22;3790;48.806;9.140;2023-05-07T23:25:43;15.30;99.90
7498;DHT22;3790;48.806;9.140;2023-05-07T23:30:43;15.30;99.90
7498;DHT22;3790;48.806;9.140;2023-05-07T23:35:44;15.20;99.90
7498;DHT22;3790;48.806;9.140;2023-05-07T23:40:44;15.30;99.90
7498;DHT22;3790;48.806;9.140;2023-05-07T23:45:45;15.20;99.90
7498;DHT22;3790;48.806;9.140;2023-05-07T23:50:46;15.20;99.90
7498;DHT22;3790;48.806;9.140;2023-05-07T23:55:46;15.20;99.90
